Date,TemperatureHighF,TemperatureAvgF,TemperatureLowF,DewpointHighF,DewpointAvgF,DewpointLowF,HumidityHigh,HumidityAvg,HumidityLow,PressureMaxIn,PressureMinIn,WindSpeedMaxMPH,WindSpeedAvgMPH,GustSpeedMaxMPH,PrecipitationSumIn
2013-1-1,37.3,32.8,21.8,29.3,21.8,8.5,78,64,52,29.91,29.71,30,18,0,0.00
2013-1-2,30.7,22.8,14.3,18.7,11.2,2.7,71,61,53,30.08,29.88,23,16,0,0.00
2013-1-3,26.4,17.5,8.8,15.5,3.2,-3.0,72,54,33,30.12,29.99,22,12,0,0.00
2013-1-4,37.5,31.4,23.6,28.1,23.4,15.4,82,72,59,29.99,29.80,24,13,0,0.00
2013-1-5,42.8,35.6,30.4,30.2,25.6,22.1,86,68,50,30.25,29.84,20,9,0,0.00
2013-1-6,43.5,35.6,30.1,34.2,30.2,23.9,94,81,65,30.21,29.92,17,7,0,0.00
2013-1-7,40.5,34.9,29.8,32.8,30.4,27.5,93,84,68,30.40,29.95,17,6,0,0.00
2013-1-8,46.5,38.4,28.7,35.5,32.5,27.2,94,80,62,30.37,30.25,25,13,0,0.00
2013-1-9,45.1,39.3,32.7,40.5,35.0,31.2,94,85,70,30.39,29.97,23,9,0,0.00
2013-1-10,46.7,42.3,36.8,35.1,30.8,28.2,73,64,52,30.52,30.03,29,17,0,0.00
2013-1-11,41.9,37.7,33.4,37.0,33.4,27.6,94,84,74,30.51,30.22,13,3,0,0.09
2013-1-12,44.1,41.4,38.2,42.5,39.8,36.6,94,94,94,30.23,30.12,4,1,0,0.01
2013-1-13,51.3,46.1,42.3,49.6,44.4,40.7,94,94,94,30.14,29.98,20,8,0,0.01
2013-1-14,60.2,49.7,43.6,55.5,42.1,-99.9,94,82,66,30.23,29.84,24,-20,0,0.00
2013-1-15,42.1,33.3,37.0,31.8,2.5,-99.9,75,55,66,30.31,30.21,13,-142,0,0.00
2013-1-16,37.8,34.8,32.4,34.9,32.2,28.3,94,90,70,30.23,29.81,11,4,0,0.37
2013-1-17,42.5,36.3,30.3,35.6,30.5,17.3,94,80,58,30.08,29.83,20,13,0,0.00
2013-1-18,30.1,23.9,18.4,16.3,5.1,-4.7,58,44,32,30.45,30.05,23,15,0,0.00
2013-1-19,48.0,37.8,23.3,37.7,28.5,9.3,85,69,54,30.40,29.89,29,19,0,0.00
2013-1-20,53.2,43.0,30.3,40.0,33.0,15.2,86,69,50,29.91,29.52,33,23,0,0.00
2013-1-21,30.1,26.0,23.3,25.1,13.7,6.8,94,61,45,30.09,29.77,26,9,0,0.00
2013-1-22,27.0,22.4,15.9,25.5,12.9,2.7,94,68,43,30.06,29.73,22,16,0,0.00
2013-1-23,16.4,13.1,9.9,3.9,-2.8,-8.3,67,49,34,30.13,30.05,25,19,0,0.00
2013-1-24,20.2,16.7,9.0,2.3,-2.0,-5.4,53,43,34,30.19,30.04,31,21,0,0.00
2013-1-25,23.3,17.1,10.5,16.6,-0.1,-6.1,93,47,32,30.28,30.05,24,13,0,0.00
2013-1-26,24.7,18.8,14.6,16.6,7.8,-2.0,93,64,37,30.21,29.99,24,14,0,0.00
2013-1-27,30.3,22.6,15.9,13.4,7.5,3.6,69,53,38,30.45,30.21,22,17,0,0.00
2013-1-28,30.3,25.8,21.4,28.0,14.7,-99.9,94,68,44,30.43,30.00,13,-2,0,0.00
2013-1-29,33.7,30.7,27.0,32.2,29.2,25.5,94,94,94,30.19,30.00,9,3,0,0.05
2013-1-30,57.3,47.9,33.7,55.6,46.2,32.2,94,94,94,30.15,29.47,33,17,0,0.16
2013-1-31,61.6,47.4,32.9,59.9,40.7,20.7,94,78,51,29.57,28.96,47,30,0,0.34
2013-2-1,32.8,29.5,24.1,22.3,15.1,8.4,69,55,40,30.06,29.57,28,20,0,0.00
2013-2-2,29.5,25.2,19.4,18.4,11.8,5.1,67,57,45,30.25,30.04,23,12,0,0.00
2013-2-3,27.2,25.0,23.6,24.3,22.2,15.5,94,89,61,30.04,29.71,15,9,0,0.00
2013-2-4,29.1,26.0,22.7,23.3,15.9,10.9,90,66,47,29.93,29.70,31,20,0,0.00
2013-2-5,27.8,25.2,22.4,25.8,16.1,11.0,94,69,54,30.02,29.92,17,4,0,0.00
2013-2-6,37.3,30.6,27.3,35.7,29.1,25.8,94,94,94,30.01,29.91,23,6,0,0.06
2013-2-7,25.4,22.9,21.4,22.6,20.6,18.9,94,91,88,30.51,30.49,17,15,0,0.00
2013-2-8,33.4,31.7,25.8,31.9,30.2,24.3,94,94,94,30.30,29.51,23,15,0,0.05
2013-2-9,25.8,19.4,16.7,24.2,18.0,15.3,94,94,94,30.15,29.46,27,17,0,0.00
2013-2-10,36.9,25.8,16.5,35.3,24.4,15.1,94,94,94,30.38,30.15,21,9,0,0.27
2013-2-11,44.5,35.9,25.1,42.9,34.4,23.6,94,94,94,30.34,29.58,16,8,0,0.23
2013-2-12,43.2,39.3,35.3,41.6,29.9,20.7,94,72,47,29.86,29.58,38,17,0,0.00
2013-2-13,46.5,36.3,31.3,31.2,21.6,17.0,55,55,55,29.86,29.68,15,5,0,0.00
2013-2-14,48.9,37.6,33.4,33.3,22.2,18.8,55,54,42,29.99,29.68,17,7,0,0.00
2013-2-15,47.4,39.1,32.5,32.0,24.3,18.1,55,55,55,30.00,29.91,22,12,0,0.00
2013-2-16,37.3,34.7,32.8,22.6,20.2,18.4,55,55,55,29.94,29.69,19,7,0,0.02
2013-2-17,32.8,23.4,19.1,18.1,4.8,-8.8,55,45,27,29.69,29.34,33,26,0,0.00
2013-2-18,31.8,24.0,16.7,-2.5,-7.9,-18.0,39,25,11,30.14,29.63,31,22,0,0.00
2013-2-19,46.5,36.7,25.4,31.2,15.9,-9.2,55,43,21,30.15,29.57,21,8,0,0.32
2013-2-20,41.9,33.2,27.3,26.8,12.2,0.6,55,42,26,29.76,29.52,33,22,0,0.00
2013-2-21,32.2,28.3,25.7,11.8,6.0,0.7,50,39,28,30.13,29.75,27,20,0,0.00
2013-2-22,39.5,32.1,27.2,22.0,16.7,10.2,55,53,48,30.36,30.14,22,8,0,0.00
2013-2-23,38.6,35.5,31.9,23.8,20.9,17.5,55,55,55,30.33,29.91,7,3,0,0.17
2013-2-24,39.2,35.0,31.0,24.4,20.5,16.7,55,55,55,29.90,29.66,29,12,0,1.17
2013-2-25,43.3,35.3,30.6,27.2,20.5,16.3,55,55,47,30.24,29.87,19,5,0,0.02
2013-2-26,46.0,37.3,31.9,30.4,22.6,17.5,55,55,54,30.34,30.15,16,2,0,0.00
2013-2-27,41.2,40.2,38.8,26.2,25.3,24.0,55,55,55,30.15,29.53,32,7,0,1.26
2013-2-28,47.4,39.2,34.6,31.9,24.4,20.1,55,55,55,29.64,29.51,14,4,0,0.00
2013-3-1,39.5,37.5,35.8,24.7,22.8,21.2,55,55,55,29.66,29.51,21,8,0,0.00
2013-3-2,48.5,38.4,34.3,26.3,22.6,19.8,55,53,40,29.66,29.61,20,7,0,0.00
2013-3-3,43.3,36.6,33.4,27.8,21.8,18.5,55,55,52,29.63,29.55,22,9,0,0.00
2013-3-4,38.9,34.7,31.2,21.0,17.7,13.9,55,50,39,29.70,29.55,33,20,0,0.00
2013-3-5,43.2,37.2,32.1,29.4,22.8,15.5,60,56,50,30.05,29.70,29,9,0,0.00
2013-3-6,40.3,38.3,35.7,33.7,29.7,25.9,79,71,60,30.10,30.02,21,13,0,0.06
2013-3-7,37.2,34.4,32.4,31.3,28.6,26.6,79,79,79,30.04,29.95,26,22,0,1.16
2013-3-8,41.7,34.5,31.1,34.8,28.2,25.3,79,78,69,30.11,29.89,24,19,0,0.41
2013-3-9,41.4,37.5,35.1,35.4,31.3,29.2,79,78,72,30.34,30.11,20,9,0,0.00
2013-3-10,45.9,37.4,33.4,39.8,31.5,27.6,79,79,79,30.41,30.32,9,3,0,0.00
2013-3-11,49.1,40.8,34.9,42.9,34.8,29.0,79,79,79,30.32,30.15,16,9,0,0.00
2013-3-12,55.5,49.6,42.1,49.1,40.4,-99.9,79,77,79,30.16,29.72,21,3,0,0.26
2013-3-13,51.3,44.6,39.7,44.7,38.5,33.7,79,79,79,29.77,29.68,18,12,0,0.01
2013-3-14,40.0,32.9,24.3,33.7,26.5,16.5,79,77,70,29.81,29.68,28,18,0,0.00
2013-3-15,40.0,30.2,20.9,33.4,21.8,12.0,79,71,53,29.85,29.62,24,17,0,0.00
2013-3-16,40.8,34.2,29.7,30.2,23.9,19.8,79,66,50,29.86,29.65,21,8,0,0.00
2013-3-17,36.9,32.3,27.8,27.8,19.9,11.7,79,60,44,30.30,29.86,19,11,0,0.00
2013-3-18,38.2,28.5,21.5,28.2,16.9,4.2,79,62,43,30.45,30.25,17,6,0,0.00
2013-3-19,37.2,33.4,28.3,31.3,27.6,22.6,79,79,79,30.25,29.55,21,12,0,0.86
2013-3-20,38.1,32.4,26.8,32.0,26.4,21.2,79,78,74,29.81,29.66,27,16,0,0.00
2013-3-21,35.9,32.5,30.5,30.0,26.6,24.8,79,79,75,29.81,29.60,12,3,0,0.00
2013-3-22,39.8,34.2,30.0,32.2,27.9,24.3,79,77,67,29.72,29.58,26,13,0,0.03
2013-3-23,42.4,36.0,30.0,34.8,29.1,24.3,79,76,68,29.75,29.62,27,20,0,0.00
2013-3-24,48.5,39.1,33.1,42.3,33.1,27.3,79,79,75,29.80,29.72,21,8,0,0.00
2013-3-25,43.7,38.7,35.4,37.6,32.7,29.5,79,79,79,29.76,29.50,15,7,0,0.01
2013-3-26,52.5,41.9,34.6,43.5,34.8,28.8,79,76,68,29.75,29.50,18,8,0,0.02
2013-3-27,52.2,42.7,36.1,45.4,36.5,30.2,79,78,73,29.84,29.72,18,9,0,0.00
2013-3-28,46.9,41.8,37.8,40.7,35.8,31.9,79,79,79,30.00,29.84,15,6,0,0.00
2013-3-29,55.8,45.4,39.1,49.4,39.3,33.1,79,79,79,30.03,29.96,14,5,0,0.00
2013-3-30,57.1,46.7,40.5,50.6,40.4,34.5,79,79,74,30.09,30.00,14,6,0,0.00
2013-3-31,58.3,46.0,36.1,51.8,39.4,30.2,79,78,68,30.12,29.75,27,6,0,0.02
2013-4-1,57.4,46.4,37.2,50.9,39.4,22.7,79,77,54,29.77,29.48,26,14,0,0.16
2013-4-2,39.0,35.0,31.2,25.5,21.6,17.5,69,58,48,29.93,29.78,33,21,0,0.00
2013-4-3,44.1,36.8,31.4,28.4,23.2,17.4,73,58,45,30.13,29.92,30,24,0,0.00
2013-4-4,55.5,40.2,32.4,35.6,24.3,7.1,69,54,24,30.28,29.96,27,16,0,0.00
2013-4-5,60.3,46.4,39.6,43.0,29.1,20.9,53,51,42,29.96,29.54,21,11,0,0.00
2013-4-6,46.4,39.1,32.5,22.3,4.7,-20.9,46,26,8,30.24,29.77,23,12,0,0.00
2013-4-7,50.5,43.4,33.9,33.1,24.3,13.2,53,47,24,30.24,29.91,37,15,0,0.00
2013-4-8,67.3,52.0,45.6,49.6,35.4,29.3,53,53,51,30.01,29.85,21,7,0,0.00
2013-4-9,67.0,51.5,45.9,49.3,34.9,29.7,53,53,53,30.00,29.76,17,5,0,0.04
2013-4-10,58.8,48.7,44.2,41.7,32.3,28.1,53,53,53,29.92,29.78,10,3,0,0.08
2013-4-11,52.9,45.9,42.5,36.2,29.7,26.6,53,53,53,30.06,29.73,9,3,0,0.06
2013-4-12,42.5,40.3,38.6,33.2,28.7,23.4,73,64,50,30.08,29.67,15,7,0,0.40
2013-4-13,53.5,42.6,37.0,44.9,34.5,29.1,73,73,72,29.83,29.65,18,7,0,0.03
2013-4-14,51.4,47.0,43.2,40.9,36.2,32.8,73,66,54,30.11,29.83,20,9,0,0.00
2013-4-15,53.5,46.2,39.9,45.1,37.6,31.6,73,72,66,30.31,30.11,12,4,0,0.00
2013-4-16,60.5,50.9,40.3,51.4,42.5,32.3,73,73,69,30.33,29.97,33,15,0,0.00
2013-4-17,69.0,57.2,48.0,59.3,47.1,38.5,73,69,56,30.24,29.96,23,7,0,0.00
2013-4-18,61.4,51.5,45.6,51.9,42.3,37.4,73,71,56,30.34,30.07,20,8,0,0.00
2013-4-19,70.3,61.3,52.3,60.8,52.6,43.9,73,73,73,30.07,29.58,32,20,0,0.00
2013-4-20,63.6,54.7,47.1,54.8,43.6,30.2,73,67,50,30.12,29.52,35,17,0,0.18
2013-4-21,54.5,44.6,38.3,37.5,28.3,19.9,69,53,41,30.59,30.12,24,9,0,0.00
2013-4-22,51.4,45.0,41.3,39.8,34.5,28.6,73,67,54,30.68,30.50,11,5,0,0.00
2013-4-23,43.8,42.5,41.0,35.5,34.3,31.9,73,73,69,30.51,30.01,18,10,0,0.23
2013-4-24,70.1,52.1,43.2,61.0,43.7,35.1,73,73,73,30.00,29.71,28,14,0,0.01
2013-4-25,69.3,56.2,48.9,57.1,46.2,40.0,73,69,59,30.17,29.74,31,10,0,0.02
2013-4-26,53.6,49.0,44.9,45.2,40.6,36.8,73,73,68,30.34,30.16,10,4,0,0.00
2013-4-27,60.9,51.9,42.9,52.2,42.7,34.8,73,71,63,30.34,30.21,12,4,0,0.00
2013-4-28,63.3,53.9,45.8,52.4,44.8,37.4,73,71,60,30.26,30.14,14,6,0,0.00
2013-4-29,66.3,56.2,48.4,56.1,45.6,35.3,73,68,44,30.19,30.11,17,7,0,0.00
2013-4-30,64.1,54.7,47.4,53.2,43.6,33.7,73,66,48,30.28,30.17,10,3,0,0.00
2013-5-1,63.8,54.7,46.8,55.0,45.3,33.6,73,71,54,30.40,30.28,9,2,0,0.00
2013-5-2,51.8,48.7,47.2,43.4,40.4,39.0,73,73,73,30.39,30.34,8,3,0,0.00
2013-5-3,52.9,49.0,46.5,44.3,40.7,38.3,73,73,73,30.44,30.28,10,6,0,0.00
2013-5-4,54.8,49.6,44.8,44.8,40.9,36.7,73,72,67,30.29,30.24,7,3,0,0.00
2013-5-5,58.5,49.9,44.5,48.6,41.3,36.2,73,72,68,30.24,30.18,7,3,0,0.00
2013-5-6,58.0,50.5,42.6,49.4,42.1,34.5,73,73,73,30.21,30.07,10,4,0,0.00
2013-5-7,72.3,60.2,49.5,63.1,51.5,41.0,73,73,73,30.10,30.01,16,6,0,0.00
2013-5-8,65.0,58.3,53.5,56.1,49.7,45.1,73,73,73,30.12,29.97,13,6,0,0.15
2013-5-9,62.8,56.5,53.9,54.0,47.9,45.3,73,73,73,29.97,29.80,6,2,0,0.37
2013-5-10,69.8,61.6,54.6,60.8,52.9,46.0,73,73,73,29.87,29.80,14,5,0,0.01
2013-5-11,70.5,63.1,59.1,61.2,54.3,50.5,73,73,73,29.83,29.61,26,15,0,0.02
2013-5-12,71.8,61.5,54.6,62.7,50.7,33.8,73,68,45,29.71,29.48,24,8,0,0.04
2013-5-13,59.9,52.8,47.1,37.5,32.0,25.3,58,45,35,29.93,29.71,17,12,0,0.00
2013-5-14,59.3,52.4,45.2,36.0,32.2,26.8,63,47,30,29.96,29.88,16,8,0,0.00
2013-5-15,64.1,55.3,45.9,50.1,39.7,30.1,73,57,36,29.97,29.58,29,10,0,0.00
2013-5-16,79.9,67.4,55.5,64.2,50.7,41.8,73,56,35,29.69,29.54,23,12,0,0.00
2013-5-17,67.5,59.7,53.8,50.8,43.4,36.7,68,55,43,30.13,29.69,13,6,0,0.00
2013-5-18,72.5,59.8,51.4,52.0,45.4,39.4,72,60,38,30.22,30.13,14,6,0,0.00
2013-5-19,63.6,56.9,53.3,50.1,46.7,43.5,73,69,60,30.27,30.14,12,5,0,0.10
2013-5-20,85.0,65.6,56.0,75.4,56.4,47.5,73,72,66,30.14,29.83,11,5,0,0.17
2013-5-21,65.5,57.6,52.1,56.6,49.0,43.7,73,73,73,29.93,29.80,13,4,0,0.05
2013-5-22,59.9,55.3,50.9,51.2,46.8,42.6,73,73,73,29.96,29.81,16,4,0,0.04
2013-5-23,75.3,63.5,53.9,66.0,54.7,45.4,73,73,73,29.84,29.73,28,11,0,0.01
2013-5-24,69.3,63.1,52.7,60.3,54.3,44.3,73,73,73,29.73,29.57,20,10,0,0.38
2013-5-25,53.8,49.8,44.5,45.3,41.5,36.2,73,73,73,29.71,29.60,22,14,0,0.26
2013-5-26,57.7,50.0,42.2,49.1,41.1,-99.9,73,73,73,30.00,29.62,24,17,0,0.02
2013-5-27,70.8,59.4,46.9,61.7,50.7,38.7,73,73,73,30.08,29.98,17,7,0,0.00
2013-5-28,66.3,60.0,52.0,57.3,51.3,43.6,73,73,73,30.15,30.07,14,4,0,0.00
2013-5-29,70.3,61.8,58.2,61.2,53.1,49.6,73,73,73,30.11,29.91,14,4,0,0.72
2013-5-30,85.2,74.5,60.6,75.4,65.3,51.6,73,73,73,29.99,29.90,17,8,0,0.00
2013-5-31,93.2,79.6,68.5,83.1,70.2,59.5,73,73,73,30.00,29.84,16,7,0,0.00
2013-6-1,89.1,77.1,67.8,79.1,67.8,58.8,73,73,73,29.89,29.77,19,12,0,0.00
2013-6-2,84.7,74.2,67.3,74.9,65.0,58.3,73,73,73,29.97,29.66,34,17,0,0.00
2013-6-3,73.9,67.9,64.4,64.7,58.5,45.7,73,72,49,30.01,29.92,16,8,0,0.27
2013-6-4,70.3,63.4,56.3,51.2,45.2,37.1,64,52,44,30.10,29.92,16,8,0,0.00
2013-6-5,75.1,64.3,57.7,60.3,49.3,43.5,68,59,43,30.19,30.08,15,5,0,0.00
2013-6-6,71.6,63.5,58.7,60.9,53.6,49.8,73,70,62,30.19,30.10,13,5,0,0.00
2013-6-7,58.7,56.5,54.9,49.9,47.9,46.4,73,73,73,30.13,29.80,10,4,0,2.70
2013-6-8,77.4,63.5,54.5,67.9,54.6,46.0,73,73,73,29.99,29.58,16,9,0,0.63
2013-6-9,80.1,69.9,61.2,70.7,60.9,52.5,73,73,72,30.15,29.99,12,4,0,0.00
2013-6-10,69.6,63.4,58.3,60.5,54.6,49.7,73,73,72,30.21,30.02,6,2,0,0.45
2013-6-11,64.9,58.9,55.2,56.0,50.2,46.7,73,73,73,30.03,29.57,9,4,0,1.08
2013-6-12,67.8,61.0,56.0,58.1,48.9,44.4,73,65,56,29.80,29.56,21,8,0,0.06
2013-6-13,67.5,58.8,53.0,51.2,43.2,37.7,56,56,56,29.81,29.67,12,3,0,0.48
2013-6-14,72.9,60.2,52.2,56.1,44.5,37.0,56,56,56,29.75,29.62,13,6,0,1.10
2013-6-15,81.5,69.3,60.7,64.1,49.6,34.8,56,50,30,29.93,29.75,14,4,0,0.00
2013-6-16,74.1,67.5,61.2,57.0,46.7,28.9,56,48,30,29.93,29.71,18,9,0,0.00
2013-6-17,83.8,70.1,62.8,66.4,53.3,46.9,56,55,39,29.91,29.77,17,8,0,0.40
2013-6-18,71.2,63.0,57.5,54.7,47.0,41.9,56,56,56,29.96,29.88,11,3,0,0.42
2013-6-19,72.9,63.7,57.3,55.6,46.2,40.4,56,53,39,30.14,29.89,11,5,0,0.01
2013-6-20,75.8,66.1,57.2,59.0,49.7,41.6,56,56,49,30.26,30.14,16,6,0,0.00
2013-6-21,83.5,69.8,60.7,65.8,53.4,44.9,56,56,56,30.25,30.19,16,9,0,0.00
2013-6-22,81.5,70.7,63.4,64.3,54.2,47.4,56,56,53,30.22,30.11,18,12,0,0.00
2013-6-23,86.7,74.3,65.3,69.1,57.6,49.2,56,56,56,30.16,29.99,21,13,0,0.00
2013-6-24,91.3,77.6,68.0,70.1,59.8,52.7,58,54,50,30.02,29.86,18,10,0,0.11
2013-6-25,94.3,78.6,67.3,72.3,60.3,52.0,58,54,42,29.91,29.72,14,9,0,0.00
2013-6-26,84.8,76.8,72.5,77.6,69.8,65.6,79,79,79,29.85,29.75,7,2,0,0.56
2013-6-27,73.6,69.7,62.8,66.7,63.5,61.2,97,81,79,29.86,29.76,6,2,0,0.02
2013-6-28,76.3,69.0,61.4,75.4,68.1,60.3,97,97,97,29.76,29.49,20,10,0,0.49
2013-6-29,78.1,71.7,68.2,77.2,69.8,-99.9,97,96,97,29.72,29.51,26,14,0,0.21
2013-6-30,79.5,72.7,68.4,78.5,71.8,67.5,97,97,97,29.93,29.72,17,11,0,0.05
2013-7-1,80.7,73.2,69.5,79.8,72.3,68.6,97,97,97,30.08,29.93,19,8,0,0.07
2013-7-2,79.2,69.5,60.0,78.1,68.6,59.1,97,97,97,30.21,30.08,15,8,0,0.00
2013-7-3,86.1,73.0,60.1,85.1,72.1,59.2,97,97,97,30.20,30.13,17,8,0,0.00
2013-7-4,90.1,79.8,71.2,87.9,71.2,58.5,97,78,54,30.20,30.08,18,9,0,0.00
2013-7-5,91.7,81.7,74.2,72.7,63.5,56.5,54,54,54,30.16,30.03,18,9,0,0.00
2013-7-6,89.1,79.9,74.5,70.3,61.7,56.8,54,54,54,30.07,29.96,16,8,0,0.00
2013-7-7,95.9,81.2,72.9,74.9,62.1,55.3,54,53,51,30.01,29.90,11,4,0,0.00
2013-7-8,83.8,76.1,68.5,63.4,56.6,49.7,51,51,51,30.05,29.90,11,6,0,0.26
2013-7-9,73.8,70.0,67.5,54.5,51.0,48.7,51,51,51,30.11,30.04,7,3,0,0.01
2013-7-10,86.3,76.2,69.1,66.0,56.8,50.2,51,51,51,30.07,29.79,21,8,0,0.00
2013-7-11,80.4,77.3,74.3,60.6,57.7,55.0,51,51,51,29.91,29.77,13,8,0,0.10
2013-7-12,74.7,69.7,63.5,61.1,54.3,51.0,72,59,51,30.19,29.91,11,6,0,0.00
2013-7-13,71.8,66.4,62.6,62.3,57.1,53.4,72,72,72,30.31,30.19,7,4,0,0.02
2013-7-14,95.0,78.1,66.7,81.4,66.7,57.4,72,68,65,30.30,30.19,8,2,0,0.00
2013-7-15,93.9,83.0,75.7,80.3,70.0,63.1,65,65,65,30.19,30.08,10,4,0,0.00
2013-7-16,94.1,79.8,72.2,80.5,63.8,53.1,65,59,51,30.16,30.09,8,3,0,0.00
2013-7-17,91.3,77.7,69.2,70.6,58.1,50.3,51,51,51,30.17,29.99,18,6,0,0.00
2013-7-18,83.1,76.2,71.9,63.1,56.8,52.8,51,51,51,30.01,29.93,18,7,0,0.00
2013-7-19,90.6,78.2,72.2,70.0,58.6,53.1,51,51,51,29.93,29.72,20,12,0,0.00
2013-7-20,88.6,78.1,72.6,68.2,58.5,53.1,51,51,51,29.79,29.63,16,10,0,0.00
2013-7-21,77.5,71.2,65.5,57.8,52.1,46.9,51,51,51,29.99,29.79,11,4,0,0.00
2013-7-22,74.5,62.5,63.8,55.2,36.1,-99.9,51,46,51,30.02,29.89,8,-64,0,0.00
2013-7-23,78.7,67.5,64.5,59.0,48.7,46.0,51,51,51,29.89,29.53,14,3,0,0.46
2013-7-25,59.4,57.3,55.7,41.3,39.3,37.8,51,51,51,30.09,30.05,10,7,0,0.24
2013-7-26,64.3,60.5,58.0,45.8,42.3,40.0,51,51,51,30.05,29.91,16,9,0,0.93
2013-7-27,80.0,67.3,59.1,60.2,48.5,41.0,51,51,51,30.05,29.99,14,7,0,0.00
2013-7-28,69.8,64.3,62.5,50.9,45.7,44.1,51,51,51,30.02,29.96,8,3,0,0.06
2013-7-29,76.4,68.4,62.7,56.9,49.6,44.3,51,51,51,30.03,29.96,11,3,0,0.05
2013-7-30,84.0,70.9,61.1,63.1,52.9,42.6,71,53,35,30.08,30.02,10,-2,14,0.00
2013-7-31,75.2,71.3,67.8,61.5,58.1,54.1,72,63,52,30.12,30.03,13,7,17,0.00
2013-8-1,79.5,72.5,67.0,62.7,59.8,56.2,80,65,45,30.04,29.88,17,6,24,0.00
2013-8-2,83.0,72.6,65.5,65.1,59.3,48.3,85,66,30,29.88,29.78,12,5,21,0.12
2013-8-3,77.9,72.9,69.4,62.3,59.6,56.0,77,64,47,29.86,29.77,13,7,19,0.00
2013-8-4,78.9,69.7,65.3,59.4,54.7,48.4,74,60,35,29.86,29.76,29,6,40,0.00
2013-8-5,73.7,68.2,63.3,52.6,46.3,35.3,63,47,28,30.03,29.86,23,14,30,0.00
2013-8-6,78.5,64.4,60.7,56.6,38.5,-99.9,68,50,37,30.14,30.03,16,-36,18,0.00
2013-8-7,79.4,73.6,65.6,61.2,54.4,46.2,68,52,34,30.18,30.11,11,6,23,0.00
2013-8-8,79.2,71.5,65.4,68.4,63.1,51.7,88,75,60,30.13,30.00,18,11,24,0.05
2013-8-9,77.4,73.9,71.5,73.4,69.9,66.9,88,87,83,30.02,29.73,26,14,36,1.81
2013-8-10,81.8,75.3,68.3,72.2,59.4,47.1,88,61,31,29.99,29.77,16,10,25,0.00
2013-8-11,83.4,70.3,61.4,58.6,51.9,41.3,78,55,23,30.07,30.00,12,5,15,0.00
2013-8-12,82.0,72.2,64.6,64.0,56.6,45.1,84,61,30,30.02,29.91,12,6,16,0.00
2013-8-13,77.1,69.9,66.7,66.3,63.4,61.3,88,80,61,29.91,29.68,10,5,14,0.00
2013-8-14,73.1,67.2,63.1,63.1,52.0,44.8,88,60,39,29.95,29.65,23,12,32,0.00
2013-8-15,77.1,67.5,59.3,55.0,47.7,39.0,75,52,28,30.10,29.95,12,8,21,0.00
2013-8-16,78.9,69.2,60.8,55.8,50.8,41.6,75,54,27,30.18,30.10,14,8,20,0.00
2013-8-17,77.6,68.7,61.9,59.5,55.8,53.4,80,64,46,30.28,30.18,10,4,17,0.00
2013-8-18,83.4,70.0,63.1,61.1,57.9,47.8,86,67,31,30.26,30.08,13,5,16,0.00
2013-8-19,82.6,73.8,62.2,59.2,55.6,47.8,85,55,32,30.03,29.93,13,8,18,0.00
2013-8-20,87.8,79.1,66.5,63.3,58.6,54.1,77,51,35,30.06,29.96,10,4,15,0.00
2013-8-21,88.4,80.8,71.2,63.5,59.7,55.6,73,50,34,30.13,30.01,12,6,15,0.00
2013-8-22,82.8,73.4,66.5,68.5,64.1,59.7,88,74,47,30.02,29.81,19,11,27,0.00
2013-8-23,78.0,70.8,64.1,68.0,57.2,48.5,88,64,41,30.10,29.80,14,6,25,0.00
2013-8-24,76.7,66.1,58.5,53.8,46.0,30.5,73,52,21,30.32,30.10,11,6,17,0.00
2013-8-25,80.7,68.9,59.3,53.4,49.6,40.4,79,53,26,30.35,30.18,15,6,20,0.00
2013-8-26,77.4,70.3,65.4,63.2,58.3,51.7,79,66,52,30.18,29.86,17,11,24,0.00
2013-8-27,78.0,70.0,64.3,67.3,64.4,60.7,88,83,62,29.88,29.82,12,4,17,0.02
2013-8-28,75.5,65.9,60.5,64.5,60.8,56.9,88,84,65,29.97,29.85,9,4,14,0.02
2013-8-29,63.8,63.1,61.4,60.2,59.2,56.8,88,87,82,30.06,29.94,12,5,18,0.02
2013-8-30,80.7,69.2,61.4,67.5,61.2,57.2,88,77,54,30.01,29.81,15,8,17,0.00
2013-8-31,78.1,72.8,68.7,71.0,67.9,65.0,88,85,73,29.83,29.78,18,11,23,0.00
2013-9-1,78.9,72.6,68.8,72.6,68.5,65.1,88,87,74,29.87,29.77,18,9,23,0.11
2013-9-2,80.3,74.1,70.0,72.9,69.5,66.3,88,86,70,29.87,29.71,15,7,21,0.13
2013-9-3,82.0,73.2,68.2,69.5,65.5,56.7,88,77,58,29.80,29.67,17,7,23,0.00
2013-9-4,80.0,70.4,62.7,58.2,53.8,47.0,80,58,34,29.91,29.79,15,10,21,0.00
2013-9-5,69.0,64.9,59.0,61.0,55.1,41.3,88,71,51,30.12,29.85,13,6,19,0.04
2013-9-6,71.0,61.3,53.5,45.1,39.4,26.1,65,47,21,30.23,30.08,12,8,19,0.00
2013-9-7,77.1,65.7,56.3,54.1,47.0,40.8,63,52,32,30.08,29.85,14,11,20,0.00
2013-9-8,73.1,65.7,58.5,57.7,50.0,35.6,81,58,30,30.07,29.73,22,11,31,0.00
2013-9-9,70.7,60.4,53.3,49.9,42.6,33.3,69,53,30,30.23,30.07,17,8,23,0.00
2013-9-10,74.6,67.1,58.7,67.5,59.4,48.1,88,77,65,30.15,30.03,23,14,31,0.02
2013-9-11,90.1,77.7,68.7,71.4,67.7,62.8,88,73,42,30.07,29.92,21,12,26,0.00
2013-9-12,83.2,74.7,67.5,69.3,67.1,63.8,88,78,57,29.97,29.66,27,16,34,0.18
2013-9-13,81.3,68.4,61.3,67.1,62.4,53.8,88,82,51,29.73,29.56,13,4,34,0.38
2013-9-14,68.2,62.3,58.8,54.0,51.3,49.2,77,68,53,30.04,29.73,13,7,22,0.01
2013-9-15,74.1,62.5,55.5,54.7,49.0,42.3,85,63,38,30.15,30.04,13,6,16,0.00
2013-9-16,67.8,60.8,53.6,52.9,48.4,36.2,73,64,50,30.19,30.00,22,9,26,0.00
2013-9-17,63.5,58.2,51.7,46.0,37.2,29.6,69,47,30,30.40,30.31,13,5,24,0.00
2013-9-18,75.0,61.1,50.8,51.2,41.7,29.9,79,53,20,30.31,30.13,13,6,17,0.00
2013-9-19,76.0,63.7,54.2,55.1,48.6,42.8,79,60,32,30.13,30.02,11,6,17,0.00
2013-9-20,73.1,63.8,56.0,57.5,53.9,50.8,88,71,51,30.08,29.99,11,6,16,0.00
2013-9-21,74.6,66.3,58.5,64.1,58.2,54.4,88,76,51,30.02,29.73,25,12,33,0.00
2013-9-22,70.5,65.6,56.7,65.3,55.0,43.0,88,70,42,29.80,29.60,23,12,46,29.52
2013-9-23,63.3,55.6,50.6,43.7,39.2,35.6,65,54,40,29.98,29.80,19,13,29,0.00
2013-9-24,67.7,55.8,47.4,47.1,40.0,36.1,75,57,32,29.97,29.80,13,8,25,0.00
2013-9-25,66.5,58.1,51.7,48.6,44.3,40.5,75,61,39,29.96,29.86,11,4,16,0.00
2013-9-26,67.0,59.3,55.7,50.5,46.9,43.6,76,64,44,30.10,29.96,9,5,15,0.00
2013-9-27,68.0,60.8,57.6,51.9,49.2,43.8,77,66,47,30.24,30.10,11,6,18,0.00
2013-9-28,68.7,60.4,55.7,56.0,53.0,49.6,88,77,58,30.31,30.23,7,3,12,0.00
2013-9-29,66.7,58.6,54.3,58.0,51.7,48.7,88,79,55,30.25,30.11,6,2,12,0.01
2013-9-30,67.2,58.5,53.0,54.9,52.0,49.5,88,80,57,30.11,29.96,9,3,13,0.00
2013-10-1,78.3,63.4,54.8,55.4,50.6,45.1,88,66,34,29.95,29.84,12,5,15,0.01
2013-10-2,78.3,68.5,59.9,56.9,54.7,52.6,81,63,43,29.93,29.81,19,10,26,0.00
2013-10-3,79.6,67.8,60.9,54.8,49.5,38.9,75,55,25,30.07,29.93,12,5,18,0.00
2013-10-4,64.4,61.3,59.1,59.0,53.2,47.3,88,75,61,30.07,30.02,6,2,10,0.10
2013-10-5,70.7,62.7,59.4,59.0,56.6,50.8,88,81,50,30.11,30.04,6,2,11,0.00
2013-10-6,61.1,58.5,56.1,57.5,55.0,52.6,88,88,86,30.21,30.10,11,5,19,0.38
2013-10-7,75.3,68.2,59.9,69.1,62.4,54.0,88,82,70,30.11,29.82,29,12,40,0.13
2013-10-8,67.3,61.0,56.6,53.6,42.9,34.9,72,53,31,30.35,29.88,16,10,29,0.00
2013-10-9,63.0,57.4,54.5,47.2,41.9,37.6,76,57,42,30.45,30.34,11,7,20,0.00
2013-10-10,62.5,57.2,53.6,54.2,50.4,45.8,88,78,64,30.34,30.16,8,4,13,0.00
2013-10-11,65.4,59.6,55.8,55.5,51.8,47.1,88,76,60,30.16,30.10,10,5,17,0.00
2013-10-12,60.8,58.0,55.7,56.4,52.8,46.4,88,83,71,30.38,30.13,12,8,23,0.00
2013-10-13,63.9,57.0,51.4,47.0,43.9,38.8,75,62,48,30.43,30.34,9,5,18,0.00
2013-10-14,64.1,54.6,48.0,49.0,45.6,39.2,88,73,48,30.39,30.24,12,4,14,0.00
2013-10-15,63.3,58.2,53.9,54.0,49.2,45.1,88,72,61,30.25,30.17,11,4,15,0.00
2013-10-16,61.9,58.2,55.5,54.8,53.6,50.9,88,85,74,30.17,29.89,7,4,12,0.00
2013-10-17,70.5,62.0,55.5,59.2,55.6,52.0,88,80,60,29.90,29.71,17,10,19,0.00
2013-10-18,66.8,62.8,57.0,61.0,49.2,38.5,88,63,38,29.89,29.59,21,14,30,0.03
2013-10-19,65.4,57.9,51.2,45.5,40.4,33.3,69,53,32,29.96,29.74,16,8,21,0.00
2013-10-20,62.5,57.0,53.0,52.6,38.6,25.5,86,54,26,30.00,29.67,21,12,30,0.00
2013-10-21,68.5,55.9,47.4,49.2,38.1,31.8,70,52,27,30.10,30.00,19,7,22,0.00
2013-10-22,68.5,59.5,50.8,50.2,44.4,33.0,83,59,37,29.94,29.68,17,11,22,0.00
2013-10-23,53.2,50.7,47.7,36.9,29.6,24.8,62,45,34,29.78,29.57,16,5,25,0.00
2013-10-24,53.2,48.7,43.5,34.6,26.4,12.9,63,43,20,29.86,29.59,22,15,30,0.00
2013-10-25,49.9,45.5,41.2,33.6,26.5,20.0,71,48,32,30.13,29.86,18,12,25,0.00
2013-10-26,54.9,47.5,38.2,35.6,29.2,18.3,77,51,26,30.13,29.85,28,15,37,0.00
2013-10-27,54.9,50.1,45.0,38.8,31.6,23.4,78,50,33,30.04,29.81,20,14,31,0.04
2013-10-28,58.4,48.7,41.5,33.7,28.8,18.9,68,47,29,30.32,30.04,22,13,32,0.00
2013-10-29,52.3,43.8,39.5,36.5,29.0,19.1,80,57,38,30.41,30.32,13,6,25,0.00
2013-10-30,53.5,45.2,40.9,43.7,38.0,31.5,86,76,60,30.35,30.18,10,4,13,0.04
2013-10-31,62.4,53.7,43.5,58.1,49.0,40.2,88,84,71,30.22,29.80,28,12,38,0.02
2013-11-1,69.7,64.2,59.4,60.7,55.9,50.9,88,75,60,29.80,29.43,41,25,59,0.03
2013-11-2,68.0,58.1,53.5,52.3,44.8,37.5,80,63,33,29.70,29.58,16,5,32,0.00
2013-11-3,53.6,42.9,36.6,46.6,28.5,11.5,83,59,31,30.38,29.70,21,14,31,0.01
2013-11-4,43.6,38.6,34.5,25.9,18.7,12.6,61,45,29,30.68,30.38,18,10,30,0.00
2013-11-5,52.4,42.7,36.7,33.2,26.4,18.8,68,53,38,30.69,30.50,11,6,16,0.00
2013-11-6,58.8,50.6,43.3,51.6,41.1,32.3,88,70,48,30.50,30.01,23,13,29,0.00
2013-11-7,66.0,55.8,45.2,58.0,49.2,27.6,88,79,50,30.02,29.65,24,16,35,0.24
2013-11-8,48.1,42.9,38.3,30.4,24.0,16.9,59,47,37,30.07,29.79,27,17,42,0.00
2013-11-9,45.3,41.1,35.0,26.6,20.3,13.8,59,44,28,30.18,30.03,20,9,33,0.00
2013-11-10,54.9,48.0,42.5,40.9,34.1,24.2,81,59,43,30.03,29.70,27,12,32,0.03
2013-11-11,51.7,46.8,41.9,33.2,25.6,16.3,55,44,25,30.07,29.81,28,16,40,0.00
2013-11-12,51.2,39.0,31.6,37.5,23.1,12.3,84,54,39,30.16,29.86,33,17,44,0.03
2013-11-13,37.2,33.2,27.6,16.9,10.5,2.6,58,39,25,30.25,30.15,23,15,32,0.00
2013-11-14,50.6,41.5,31.6,25.3,16.9,9.8,55,38,21,30.16,30.01,20,15,27,0.00
2013-11-15,59.0,48.1,39.7,36.9,22.2,8.4,68,38,15,30.18,30.08,18,11,23,0.00
2013-11-16,61.3,48.7,43.9,39.0,29.4,14.7,78,50,18,30.30,30.16,14,6,22,0.00
2013-11-17,58.0,50.0,42.3,54.5,45.1,38.1,88,83,68,30.30,29.84,11,4,20,0.02
2013-11-18,64.7,59.0,50.6,59.4,45.5,28.3,88,63,36,29.84,29.52,30,15,38,2.02
2013-11-19,50.6,41.6,33.9,32.1,19.4,12.4,54,41,30,30.24,29.63,29,20,40,0.00
2013-11-20,42.9,36.6,31.1,17.5,10.4,-0.9,48,35,17,30.59,30.24,18,12,32,0.00
2013-11-21,47.4,40.2,32.9,30.7,20.4,14.5,61,46,28,30.61,30.36,12,7,19,0.00
2013-11-22,47.2,45.0,43.2,43.8,39.6,30.7,88,82,61,30.36,29.79,12,5,16,0.21
2013-11-23,49.3,42.7,32.6,45.6,23.9,8.4,88,50,24,29.86,29.75,29,19,44,0.00
2013-11-24,33.1,26.6,22.9,16.1,3.4,-9.3,59,37,20,30.15,29.74,36,27,51,0.00
2013-11-25,33.6,26.9,20.1,15.3,-2.7,-21.8,48,29,9,30.35,30.15,25,16,40,0.00
2013-11-26,45.5,38.8,32.9,42.2,22.1,13.0,88,53,32,30.31,30.02,20,8,30,0.10
2013-11-27,61.6,52.1,39.8,57.4,47.1,-99.9,88,85,68,30.02,29.18,33,16,54,1.36
2013-11-28,39.8,33.6,27.4,30.8,15.0,3.0,70,47,30,30.42,29.40,32,10,42,0.00
2013-11-29,34.5,29.6,26.0,16.5,11.2,3.2,56,46,29,30.72,30.41,18,4,24,0.00
2013-11-30,35.8,30.1,25.1,22.3,17.3,11.2,71,59,46,30.76,30.47,23,10,27,0.00
2013-12-1,47.2,42.7,35.9,39.7,35.5,24.9,85,76,64,30.41,29.98,17,9,21,0.19
2013-12-2,41.4,39.4,37.9,36.7,34.8,33.5,86,83,81,29.98,29.90,16,5,20,0.00
2013-12-3,45.8,41.6,37.0,36.6,33.0,29.7,85,72,59,29.92,29.81,14,2,18,0.00
2013-12-4,44.7,39.9,36.2,32.2,27.8,22.9,75,63,44,30.17,29.92,20,7,25,0.00
2013-12-5,56.1,46.7,38.8,51.0,40.0,29.0,86,78,66,30.19,29.89,18,5,25,0.00
2013-12-6,56.1,48.4,37.3,52.0,41.6,32.3,86,78,64,30.10,29.83,23,11,26,0.11
2013-12-7,42.7,37.1,34.2,32.2,24.4,-99.9,83,62,40,30.42,30.04,27,8,32,0.32
2013-12-8,34.3,31.6,30.5,18.3,14.3,9.8,55,48,42,30.58,30.42,23,10,29,0.00
2013-12-9,44.7,38.0,32.1,40.8,32.7,17.2,86,82,53,30.47,29.84,24,11,33,0.08
2013-12-10,36.9,33.7,27.7,32.0,25.6,10.6,85,73,44,29.98,29.76,31,10,40,0.03
2013-12-11,30.6,28.0,25.5,18.2,15.5,12.2,66,59,49,30.19,29.98,17,13,40,0.00
2013-12-12,27.5,23.8,19.7,17.5,5.6,-7.3,67,47,24,30.25,30.06,28,13,33,0.00
2013-12-13,29.8,24.8,18.4,17.8,8.1,4.4,66,49,37,30.36,29.97,26,15,32,0.00
2013-12-14,31.6,21.6,13.4,27.3,12.7,-4.5,84,69,44,30.58,30.14,26,15,33,0.00
2013-12-15,39.7,31.0,23.1,35.9,25.3,17.8,86,79,63,30.14,29.32,38,20,46,0.00
2013-12-16,30.2,26.8,21.9,19.7,10.0,0.5,70,50,31,30.18,29.72,29,16,37,0.00
2013-12-17,31.9,21.4,14.6,27.8,12.6,0.6,85,69,41,30.26,29.89,29,12,33,0.00
2013-12-18,34.4,27.8,20.6,21.0,17.9,15.9,83,67,48,30.05,29.81,29,17,33,0.00
2013-12-19,43.6,35.3,28.4,25.3,20.6,17.7,66,56,38,30.09,29.93,21,9,29,0.00
2013-12-20,49.2,40.9,34.6,34.6,29.4,24.4,72,64,53,30.10,29.89,13,7,22,0.00
2013-12-21,51.7,45.4,40.2,42.9,38.3,31.6,83,76,68,29.93,29.84,13,8,22,0.00
2013-12-22,54.6,41.5,37.1,50.4,37.1,32.9,86,84,77,30.01,29.76,29,6,37,0.01
2013-12-23,39.0,35.6,33.1,35.2,31.8,29.3,86,86,85,30.07,29.95,21,10,25,0.56
2013-12-24,38.2,33.9,29.5,34.4,21.0,11.1,86,60,41,30.17,30.02,26,18,30,0.00
2013-12-25,29.2,20.9,15.3,15.3,4.6,-1.5,64,49,39,30.53,30.17,32,14,40,0.00
2013-12-26,38.2,30.1,22.4,31.4,21.8,4.8,84,71,46,30.48,30.05,16,5,22,0.00
2013-12-27,34.9,31.1,27.5,21.0,17.9,13.6,72,58,43,30.25,30.16,17,8,23,0.00
2013-12-28,47.1,37.3,29.4,26.7,22.8,19.8,71,57,35,30.20,29.97,19,8,28,0.00
2013-12-29,41.9,38.6,34.8,37.7,31.1,24.9,86,74,63,30.01,29.33,34,9,40,0.90
2013-12-30,42.6,32.9,20.0,32.7,16.4,-99.9,85,59,32,30.13,29.46,29,-23,40,0.00
2013-12-31,26.0,20.2,15.1,12.4,-0.1,-10.5,57,41,28,30.16,30.01,20,10,31,0.00
2014-1-1,26.7,23.4,19.9,6.0,1.7,-2.5,48,39,30,30.36,30.16,21,12,31,0.00
2014-1-2,26.9,23.1,14.0,23.0,18.3,5.1,88,82,45,30.34,29.77,26,14,40,0.00